createdAt,value
2022-09-01T00:02:34.978Z,2.6
2022-09-01T00:05:34.885Z,2.3
2022-09-01T00:08:34.880Z,2.7
2022-09-01T00:11:34.887Z,3.2
2022-09-01T00:14:36.487Z,2.6
2022-09-01T00:17:34.888Z,2.8
2022-09-01T00:20:34.892Z,3.3
2022-09-01T00:23:34.896Z,2.6
2022-09-01T00:26:34.893Z,4
2022-09-01T00:29:34.902Z,3.6
2022-09-01T00:32:34.902Z,3.8
2022-09-01T00:35:37.185Z,2.8
2022-09-01T00:38:34.901Z,3.7
2022-09-01T00:41:34.905Z,2.7
2022-09-01T00:44:34.908Z,3.2
2022-09-01T00:47:34.910Z,2.7
2022-09-01T00:50:34.912Z,2.6
2022-09-01T00:53:34.910Z,2.8
2022-09-01T00:56:34.909Z,3.4
2022-09-01T00:59:34.918Z,3.7
2022-09-01T01:02:34.989Z,3.5
2022-09-01T01:05:34.917Z,3.2
2022-09-01T01:08:34.919Z,2.5
2022-09-01T01:11:34.923Z,3.8
2022-09-01T01:14:34.926Z,3.6
2022-09-01T01:17:34.924Z,3.4
2022-09-01T01:20:34.925Z,3
2022-09-01T01:23:34.929Z,3.1
2022-09-01T01:26:34.931Z,3.6
2022-09-01T01:29:34.930Z,4.1
2022-09-01T01:32:34.938Z,3.9
2022-09-01T01:35:34.934Z,3.3
2022-09-01T01:38:34.934Z,4.3
2022-09-01T01:41:34.941Z,4
2022-09-01T01:44:34.942Z,5.1
2022-09-01T01:47:34.942Z,3.2
2022-09-01T01:50:34.943Z,4
2022-09-01T01:53:35.026Z,2.9
2022-09-01T01:56:34.956Z,3.6
2022-09-01T01:59:34.958Z,3.9
2022-09-01T02:02:35.010Z,3.8
2022-09-01T02:05:34.974Z,3.1
2022-09-01T02:08:34.965Z,3.9
2022-09-01T02:11:34.961Z,4.2
2022-09-01T02:14:34.960Z,4.5
2022-09-01T02:17:34.970Z,3.4
2022-09-01T02:20:34.965Z,4
2022-09-01T02:23:34.971Z,3.8
2022-09-01T02:26:34.979Z,3.4
2022-09-01T02:29:37.118Z,3.7
2022-09-01T02:32:34.975Z,3.5
2022-09-01T02:35:34.974Z,3
2022-09-01T02:38:34.979Z,4.4
2022-09-01T02:41:34.976Z,3.2
2022-09-01T02:44:38.327Z,4.5
2022-09-01T02:47:34.979Z,3.1
2022-09-01T02:50:34.987Z,3.5
2022-09-01T02:53:34.996Z,3.8
2022-09-01T02:56:34.987Z,3.8
2022-09-01T02:59:35.006Z,4.3
2022-09-01T03:02:34.998Z,3.8
2022-09-01T03:05:35.003Z,4
2022-09-01T03:08:35.004Z,5
2022-09-01T03:11:35.026Z,4
2022-09-01T03:14:35.007Z,3.5
2022-09-01T03:17:35.013Z,4
2022-09-01T03:20:35.014Z,4.5
2022-09-01T03:23:35.021Z,5
2022-09-01T03:26:35.030Z,7.3
2022-09-01T03:29:36.801Z,3.7
2022-09-01T03:32:35.029Z,4.6
2022-09-01T03:35:35.028Z,4.5
2022-09-01T03:38:35.030Z,4.6
2022-09-01T03:41:35.038Z,5
2022-09-01T03:44:35.045Z,4.7
2022-09-01T03:47:35.044Z,5.3
2022-09-01T03:50:35.053Z,5
2022-09-01T03:53:35.055Z,5.8
2022-09-01T03:56:35.061Z,5.6
2022-09-01T03:59:35.058Z,5.2
2022-09-01T04:02:35.124Z,7.1
2022-09-01T04:05:35.063Z,4.9
2022-09-01T04:08:35.071Z,5.3
2022-09-01T04:11:35.076Z,6
2022-09-01T04:14:35.073Z,5.2
2022-09-01T04:17:35.078Z,5.6
2022-09-01T04:20:35.079Z,6.5
2022-09-01T04:23:35.080Z,6.3
2022-09-01T04:26:35.090Z,4.7
2022-09-01T04:29:35.103Z,6
2022-09-01T04:32:35.096Z,4.6
2022-09-01T04:35:36.284Z,7.1
2022-09-01T04:38:35.099Z,6.9
2022-09-01T04:41:35.108Z,6
2022-09-01T04:44:35.116Z,7.4
2022-09-01T04:47:35.853Z,5.9
2022-09-01T04:50:35.114Z,4.5
2022-09-01T04:53:35.116Z,6.7
2022-09-01T04:56:35.125Z,6.7
2022-09-01T04:59:35.136Z,6.6
2022-09-01T05:02:35.179Z,7.4
2022-09-01T05:05:35.131Z,7
2022-09-01T05:08:35.144Z,5.5
2022-09-01T05:11:35.144Z,5.6
2022-09-01T05:14:35.163Z,6
2022-09-01T05:17:35.159Z,5.9
2022-09-01T05:20:35.168Z,5
2022-09-01T05:23:35.176Z,5
2022-09-01T05:26:35.179Z,5.1
2022-09-01T05:29:35.190Z,5.8
2022-09-01T05:32:35.188Z,4.8
2022-09-01T05:35:35.190Z,4.9
2022-09-01T05:38:35.198Z,4.8
2022-09-01T05:41:35.199Z,4.2
2022-09-01T05:44:35.229Z,4
2022-09-01T05:47:35.209Z,4
2022-09-01T05:50:35.222Z,4.5
2022-09-01T05:53:35.222Z,4.9
2022-09-01T05:56:35.229Z,4.8
2022-09-01T05:59:35.245Z,4.8
2022-09-01T06:02:35.336Z,4.5
2022-09-01T06:05:35.250Z,3.7
2022-09-01T06:08:35.254Z,2.3
2022-09-01T06:11:35.257Z,3.1
2022-09-01T06:14:35.263Z,3.1
2022-09-01T06:17:36.003Z,3.3
2022-09-01T06:20:35.351Z,2.9
2022-09-01T06:23:35.275Z,2.3
2022-09-01T06:26:35.277Z,2.4
2022-09-01T06:29:35.282Z,1.9
2022-09-01T06:32:35.289Z,3.3
2022-09-01T06:35:35.292Z,3
2022-09-01T06:38:35.300Z,2.4
2022-09-01T06:41:35.305Z,3
2022-09-01T06:44:40.563Z,2.2
2022-09-01T06:47:35.311Z,2.4
2022-09-01T06:53:35.581Z,1.9
2022-09-01T06:56:36.804Z,2
2022-09-01T06:59:35.336Z,3.5
2022-09-01T07:02:35.380Z,2.5
2022-09-01T07:06:03.228Z,1.9
2022-09-01T07:09:18.942Z,2.6
2022-09-01T07:16:29.725Z,1.6
2022-09-01T07:17:35.380Z,2
2022-09-01T07:20:35.380Z,1.8
2022-09-01T07:24:08.112Z,1.8
2022-09-01T07:26:35.401Z,2.5
2022-09-01T07:29:35.395Z,2.6
2022-09-01T07:32:43.501Z,3.3
2022-09-01T07:35:35.409Z,2.3
2022-09-01T07:39:48.290Z,2.1
2022-09-01T07:44:35.445Z,2.3
2022-09-01T07:48:02.621Z,1.8
2022-09-01T07:51:34.956Z,2
2022-09-01T07:53:35.451Z,2
2022-09-01T07:56:39.657Z,2.4
2022-09-01T07:59:35.464Z,1.9
2022-09-01T08:02:35.526Z,2.5
2022-09-01T08:05:35.481Z,1.8
2022-09-01T08:08:35.794Z,2.8
2022-09-01T08:11:58.505Z,1.7
2022-09-01T08:14:35.497Z,1.9
2022-09-01T08:17:50.628Z,1.6
2022-09-01T08:20:35.544Z,1.3
2022-09-01T08:23:35.525Z,1.4
2022-09-01T08:26:35.621Z,1.5
2022-09-01T08:29:35.656Z,2.8
2022-09-01T08:32:35.632Z,1.4
2022-09-01T08:35:35.673Z,1.9
2022-09-01T08:38:35.554Z,1.4
2022-09-01T08:41:35.648Z,1.4
2022-09-01T08:44:35.565Z,3.3
2022-09-01T08:47:50.627Z,1.5
2022-09-01T08:50:35.591Z,1.4
2022-09-01T08:53:35.588Z,1.8
2022-09-01T08:56:35.597Z,1.8
2022-09-01T08:59:35.602Z,2.3
2022-09-01T09:02:36.532Z,1.9
2022-09-01T09:05:35.628Z,1.5
2022-09-01T09:08:35.629Z,1.9
2022-09-01T09:11:35.638Z,1.8
2022-09-01T09:14:35.647Z,1.4
2022-09-01T09:17:35.654Z,2
2022-09-01T09:20:35.673Z,1.3
2022-09-01T09:23:35.674Z,1.2
2022-09-01T09:26:43.200Z,2.2
2022-09-01T09:29:35.695Z,2.6
2022-09-01T09:32:59.755Z,3.8
2022-09-01T09:35:35.717Z,1.7
2022-09-01T09:38:35.710Z,2.5
2022-09-01T09:41:36.099Z,2.3
2022-09-01T09:44:35.740Z,2.4
2022-09-01T09:47:43.403Z,1.8
2022-09-01T09:50:35.765Z,2.6
2022-09-01T09:53:35.758Z,2.6
2022-09-01T09:56:36.054Z,1.8
2022-09-01T09:59:56.918Z,1.8
2022-09-01T10:02:35.787Z,2.1
2022-09-01T10:05:35.814Z,2.4
2022-09-01T10:08:35.790Z,1.2
2022-09-01T10:11:36.107Z,1.3
2022-09-01T10:14:49.849Z,1.2
2022-09-01T10:17:36.132Z,1.6
2022-09-01T10:20:35.836Z,1.4
2022-09-01T10:23:35.828Z,2.1
2022-09-01T10:26:35.833Z,1.3
2022-09-01T10:29:47.376Z,2.6
2022-09-01T10:32:38.349Z,1.8
2022-09-01T10:35:39.006Z,1.1
2022-09-01T10:38:35.864Z,1
2022-09-01T10:41:35.925Z,2.1
2022-09-01T10:44:36.025Z,1.7
2022-09-01T10:47:35.917Z,0.9
2022-09-01T10:50:36.004Z,1.1
2022-09-01T10:53:35.908Z,1.4
2022-09-01T10:56:36.820Z,1.4
2022-09-01T10:59:40.473Z,1.8
2022-09-01T11:02:36.910Z,2.6
2022-09-01T11:05:35.947Z,4.1
2022-09-01T11:08:35.949Z,2.1
2022-09-01T11:11:35.953Z,2.4
2022-09-01T11:14:35.968Z,1.1
2022-09-01T11:17:35.991Z,1.4
2022-09-01T11:20:35.983Z,3.1
2022-09-01T11:23:35.987Z,0.8
2022-09-01T11:26:35.995Z,2.4
2022-09-01T11:29:36.005Z,1
2022-09-01T11:32:36.011Z,1.9
2022-09-01T11:35:36.033Z,2
2022-09-01T11:38:36.029Z,0.8
2022-09-01T11:41:36.039Z,1.3
2022-09-01T11:44:36.051Z,1.2
2022-09-01T11:47:36.058Z,1.4
2022-09-01T11:50:36.075Z,1.5
2022-09-01T11:53:36.075Z,2.5
2022-09-01T11:56:36.083Z,2
2022-09-01T11:59:36.095Z,1.1
2022-09-01T12:02:36.546Z,1.9
2022-09-01T12:05:36.128Z,1
2022-09-01T12:08:36.111Z,1.5
2022-09-01T12:11:36.121Z,2.2
2022-09-01T12:14:55.262Z,2.2
2022-09-01T12:17:36.143Z,2.4
2022-09-01T12:20:36.193Z,1.2
2022-09-01T12:23:36.155Z,1.6
2022-09-01T12:26:36.165Z,2.6
2022-09-01T12:29:36.300Z,1.6
2022-09-01T12:32:36.259Z,1.4
2022-09-01T12:35:36.224Z,1.8
2022-09-01T12:38:36.207Z,1.3
2022-09-01T12:41:36.218Z,1.2
2022-09-01T12:44:36.223Z,0.9
2022-09-01T12:47:36.245Z,2
2022-09-01T12:50:36.248Z,1.5
2022-09-01T12:53:36.909Z,3.2
2022-09-01T12:56:36.254Z,1.1
2022-09-01T12:59:37.477Z,4.1
2022-09-01T13:02:36.364Z,1.4
2022-09-01T13:05:41.806Z,1.9
2022-09-01T13:08:37.627Z,0.9
2022-09-01T13:14:36.324Z,1.6
2022-09-01T13:17:36.325Z,1.5
2022-09-01T13:20:36.354Z,2.8
2022-09-01T13:23:36.348Z,1.7
2022-09-01T13:26:37.102Z,1.8
2022-09-01T13:29:36.370Z,1.7
2022-09-01T13:32:36.519Z,0.9
2022-09-01T13:35:36.655Z,2.3
2022-09-01T13:38:36.398Z,1.5
2022-09-01T13:41:36.401Z,1.3
2022-09-01T13:44:36.416Z,2.5
2022-09-01T13:48:15.022Z,1
2022-09-01T13:53:36.438Z,1.5
2022-09-01T13:56:36.450Z,1.9
2022-09-01T13:59:36.449Z,1.1
2022-09-01T14:02:36.463Z,0.9
2022-09-01T14:05:36.473Z,2.2
2022-09-01T14:08:36.473Z,2.4
2022-09-01T14:11:36.483Z,2.9
2022-09-01T14:17:36.496Z,0.9
2022-09-01T14:20:36.905Z,2.4
2022-09-01T14:23:36.516Z,2
2022-09-01T14:26:36.519Z,2.2
2022-09-01T14:32:36.541Z,2.7
2022-09-01T14:35:36.545Z,2
2022-09-01T14:38:36.552Z,2.5
2022-09-01T14:41:36.558Z,1.2
2022-09-01T14:44:36.568Z,1.4
2022-09-01T14:47:36.577Z,2.2
2022-09-01T14:50:36.585Z,0.9
2022-09-01T14:53:36.600Z,1.2
2022-09-01T14:56:36.604Z,1.5
2022-09-01T14:59:36.609Z,1.8
2022-09-01T15:02:36.624Z,2.2
2022-09-01T15:05:39.094Z,1.5
2022-09-01T15:08:36.643Z,1.7
2022-09-01T15:11:36.640Z,0.7
2022-09-01T15:14:36.661Z,2.5
2022-09-01T15:17:36.666Z,1.6
2022-09-01T15:20:36.678Z,1.2
2022-09-01T15:23:36.681Z,1.9
2022-09-01T15:26:36.693Z,3
2022-09-01T15:29:36.702Z,2.2
2022-09-01T15:32:36.712Z,1.8
2022-09-01T15:35:36.717Z,1.8
2022-09-01T15:38:36.727Z,1.9
2022-09-01T15:41:36.733Z,3
2022-09-01T15:44:36.739Z,2.5
2022-09-01T15:47:36.744Z,2.1
2022-09-01T15:50:36.749Z,3.4
2022-09-01T15:53:36.759Z,2.6
2022-09-01T15:56:36.757Z,3.4
2022-09-01T15:59:36.765Z,2
2022-09-01T16:02:36.772Z,2.2
2022-09-01T16:05:36.777Z,2.4
2022-09-01T16:08:36.790Z,1.4
2022-09-01T16:11:36.789Z,1.7
2022-09-01T16:14:36.791Z,1.8
2022-09-01T16:17:36.797Z,1.3
2022-09-01T16:20:36.804Z,1.2
2022-09-01T16:23:36.809Z,1.6
2022-09-01T16:26:36.811Z,1.2
2022-09-01T16:29:36.816Z,1.1
2022-09-01T16:32:36.820Z,1.7
2022-09-01T16:35:36.825Z,2.1
2022-09-01T16:38:36.834Z,1.6
2022-09-01T16:41:36.840Z,3.4
2022-09-01T16:44:36.845Z,1.4
2022-09-01T16:47:36.849Z,3
2022-09-01T16:50:36.849Z,3.3
2022-09-01T16:53:36.853Z,3.4
2022-09-01T16:56:36.857Z,2.3
2022-09-01T16:59:36.856Z,2.2
2022-09-01T17:02:36.866Z,1.7
2022-09-01T17:05:36.871Z,1.4
2022-09-01T17:08:36.876Z,1.7
2022-09-01T17:11:36.878Z,3.3
2022-09-01T17:14:36.878Z,1.7
2022-09-01T17:17:36.885Z,2
2022-09-01T17:20:36.902Z,2.3
2022-09-01T17:23:36.890Z,1.6
2022-09-01T17:26:36.892Z,1.7
2022-09-01T17:29:36.894Z,2.3
2022-09-01T17:32:36.903Z,2.3
2022-09-01T17:35:36.900Z,1.5
2022-09-01T17:38:36.904Z,1.4
2022-09-01T17:41:36.913Z,3.6
2022-09-01T17:44:36.910Z,1.7
2022-09-01T17:47:36.910Z,1.6
2022-09-01T17:50:36.957Z,1.9
2022-09-01T17:53:36.915Z,2.4
2022-09-01T17:56:36.915Z,1.1
2022-09-01T17:59:36.935Z,2.8
2022-09-01T18:02:36.922Z,2.5
2022-09-01T18:05:36.974Z,2.8
2022-09-01T18:08:36.924Z,3.6
2022-09-01T18:11:36.928Z,2.9
2022-09-01T18:14:36.932Z,2.4
2022-09-01T18:17:36.933Z,2.7
2022-09-01T18:20:36.935Z,1.8
2022-09-01T18:23:36.943Z,1.3
2022-09-01T18:26:36.940Z,2.9
2022-09-01T18:29:36.941Z,2.2
2022-09-01T18:32:36.945Z,2.7
2022-09-01T18:35:36.942Z,2.5
2022-09-01T18:38:36.955Z,3.3
2022-09-01T18:41:36.962Z,1.9
2022-09-01T18:44:36.966Z,1
2022-09-01T18:47:36.968Z,1.5
2022-09-01T18:50:36.975Z,2
2022-09-01T18:53:36.981Z,2.7
2022-09-01T18:56:37.890Z,1.9
2022-09-01T18:59:37.307Z,3.4
2022-09-01T19:02:37.115Z,2.1
2022-09-01T19:05:37.016Z,2.4
2022-09-01T19:08:37.017Z,1.7
2022-09-01T19:11:37.036Z,2.1
2022-09-01T19:14:37.048Z,2.2
2022-09-01T19:17:37.061Z,3.8
2022-09-01T19:20:37.070Z,1.8
2022-09-01T19:23:37.077Z,3.1
2022-09-01T19:26:37.083Z,2.7
2022-09-01T19:29:37.099Z,1.5
2022-09-01T19:32:37.108Z,2
2022-09-01T19:35:37.922Z,2.7
2022-09-01T19:38:37.133Z,3.1
2022-09-01T19:41:37.142Z,1.6
2022-09-01T19:44:37.156Z,2.4
2022-09-01T19:47:37.164Z,2.2
2022-09-01T19:50:37.176Z,3.9
2022-09-01T19:53:37.188Z,3.8
2022-09-01T19:56:37.190Z,1.9
2022-09-01T19:59:37.199Z,2.5
2022-09-01T20:02:37.222Z,2.3
2022-09-01T20:05:37.232Z,3.4
2022-09-01T20:08:37.239Z,1.6
2022-09-01T20:11:37.248Z,2.4
2022-09-01T20:14:37.265Z,2
2022-09-01T20:17:37.272Z,2.5
2022-09-01T20:20:37.284Z,2.4
2022-09-01T20:23:37.308Z,2.7
2022-09-01T20:26:37.316Z,3
2022-09-01T20:29:37.336Z,1.8
2022-09-01T20:32:37.385Z,2.6
2022-09-01T20:35:37.648Z,5.3
2022-09-01T20:38:39.555Z,1.8
2022-09-01T20:41:39.604Z,3.3
2022-09-01T20:44:37.395Z,2.7
2022-09-01T20:47:37.398Z,2.5
2022-09-01T20:50:42.255Z,2.1
2022-09-01T20:53:37.415Z,3.1
2022-09-01T20:56:37.424Z,3
2022-09-01T20:59:37.440Z,2
2022-09-01T21:02:37.500Z,2.2
2022-09-01T21:05:38.361Z,3.9
2022-09-01T21:08:37.479Z,2.5
2022-09-01T21:11:37.492Z,2
2022-09-01T21:14:37.515Z,2.7
2022-09-01T21:17:37.524Z,2.5
2022-09-01T21:20:37.540Z,2.7
2022-09-01T21:23:37.548Z,2.1
2022-09-01T21:26:37.565Z,3.3
2022-09-01T21:29:37.582Z,3.5
2022-09-01T21:32:37.601Z,2.6
2022-09-01T21:35:37.607Z,3.2
2022-09-01T21:38:37.618Z,2.6
2022-09-01T21:41:37.625Z,3
2022-09-01T21:44:37.641Z,3.1
2022-09-01T21:47:37.661Z,2.1
2022-09-01T21:50:37.667Z,2.5
2022-09-01T21:53:37.684Z,2.2
2022-09-01T21:56:37.693Z,2.4
2022-09-01T21:59:37.710Z,2.8
2022-09-01T22:02:37.797Z,3.5
2022-09-01T22:05:37.742Z,2.5
2022-09-01T22:08:37.757Z,1.9
2022-09-01T22:11:37.778Z,3.6
2022-09-01T22:14:37.787Z,2.8
2022-09-01T22:17:37.812Z,2.5
2022-09-01T22:20:37.820Z,3.5
2022-09-01T22:23:37.840Z,3
2022-09-01T22:26:37.852Z,2.4
2022-09-01T22:29:37.865Z,2.7
2022-09-01T22:32:37.889Z,3.3
2022-09-01T22:35:37.887Z,4.1
2022-09-01T22:38:37.904Z,2.3
2022-09-01T22:41:37.921Z,3.6
2022-09-01T22:44:37.942Z,1.8
2022-09-01T22:47:38.413Z,4.6
2022-09-01T22:50:37.980Z,3.7
2022-09-01T22:53:37.984Z,2.7
2022-09-01T22:56:38.001Z,3.4
2022-09-01T22:59:38.018Z,2.7
2022-09-01T23:02:38.103Z,2
2022-09-01T23:05:38.050Z,3.4
2022-09-01T23:08:38.055Z,1.9
2022-09-01T23:11:38.071Z,3.3
2022-09-01T23:14:38.082Z,2.8
2022-09-01T23:17:38.096Z,2.7
2022-09-01T23:20:38.112Z,3.1
2022-09-01T23:23:38.115Z,3.6
2022-09-01T23:26:38.123Z,2.4
2022-09-01T23:29:38.135Z,3.1
2022-09-01T23:32:38.154Z,3.9
2022-09-01T23:35:38.170Z,1.9
2022-09-01T23:38:38.184Z,3.1
2022-09-01T23:41:38.202Z,2.9
2022-09-01T23:44:38.224Z,3.2
2022-09-01T23:47:38.231Z,3
2022-09-01T23:50:38.244Z,3.5
2022-09-01T23:53:38.270Z,1.8
2022-09-01T23:56:38.395Z,2.3
2022-09-01T23:59:38.291Z,2.9
